Time;durP1;ratioP1;P1;durP2;ratioP2;P2;SDS_P1;SDS_P2;PMS_P1;PMS_P2;Temp;Humidity;BMP_temperature;BMP_pressure;BME280_temperature;BME280_humidity;BME280_pressure;Samples;Min_cycle;Max_cycle;Signal;HPM_P1;HPM_P2
2024/04/03 00:01:26;;;;;;;0.60;0.50;;;;;;;;;;5885095;28;20048;-68
2024/04/03 00:04:15;;;;;;;1.05;0.90;;;;;;;;;;5886553;28;20095;-69
2024/04/03 00:07:05;;;;;;;2.00;1.08;;;;;;;;;;5886691;28;20056;-68
2024/04/03 00:09:55;;;;;;;0.55;0.55;;;;;;;;;;5886972;28;20059;-68
2024/04/03 00:12:45;;;;;;;0.60;0.60;;;;;;;;;;5886609;28;20128;-68
2024/04/03 00:15:37;;;;;;;5.63;2.13;;;;;;;;;;5886367;28;20059;-68
2024/04/03 00:18:26;;;;;;;1.63;0.55;;;;;;;;;;5886451;28;20084;-68
2024/04/03 00:21:16;;;;;;;0.52;0.52;;;;;;;;;;5886111;28;20041;-68
2024/04/03 00:24:06;;;;;;;1.45;1.00;;;;;;;;;;5886107;28;20455;-68
2024/04/03 00:26:56;;;;;;;0.68;0.68;;;;;;;;;;5886500;28;20048;-68
2024/04/03 00:29:46;;;;;;;1.13;0.88;;;;;;;;;;5886078;28;20578;-68
2024/04/03 00:32:36;;;;;;;5.63;1.55;;;;;;;;;;5886048;28;20136;-68
2024/04/03 00:35:26;;;;;;;0.52;0.40;;;;;;;;;;5902497;28;20044;-68
2024/04/03 00:38:16;;;;;;;1.55;0.95;;;;;;;;;;5885988;28;20064;-67
2024/04/03 00:41:05;;;;;;;2.17;1.40;;;;;;;;;;5885835;28;20048;-68
2024/04/03 00:43:55;;;;;;;0.52;0.52;;;;;;;;;;5886594;28;20049;-68
2024/04/03 00:46:45;;;;;;;0.85;0.70;;;;;;;;;;5885788;28;20462;-68
2024/04/03 00:49:35;;;;;;;0.40;0.40;;;;;;;;;;5885134;28;20049;-68
2024/04/03 00:52:25;;;;;;;0.60;0.60;;;;;;;;;;5885771;28;20047;-68
2024/04/03 00:55:15;;;;;;;1.25;0.88;;;;;;;;;;5885606;28;20049;-68
2024/04/03 00:58:05;;;;;;;0.52;0.35;;;;;;;;;;5885540;28;20059;-68
2024/04/03 01:00:55;;;;;;;0.73;0.65;;;;;;;;;;5885925;28;20045;-68
2024/04/03 01:03:44;;;;;;;0.50;0.45;;;;;;;;;;5885441;28;20127;-68
2024/04/03 01:06:35;;;;;;;1.38;0.95;;;;;;;;;;5885230;28;20071;-68
2024/04/03 01:09:25;;;;;;;0.35;0.35;;;;;;;;;;5885198;28;20044;-68
2024/04/03 01:12:14;;;;;;;2.20;1.40;;;;;;;;;;5885568;28;20060;-68
2024/04/03 01:15:05;;;;;;;0.93;0.88;;;;;;;;;;5885106;28;20596;-68
2024/04/03 01:17:55;;;;;;;0.50;0.47;;;;;;;;;;5869300;28;20045;-68
2024/04/03 01:20:45;;;;;;;1.08;0.98;;;;;;;;;;5885149;28;20513;-67
2024/04/03 01:23:35;;;;;;;1.15;1.05;;;;;;;;;;5884959;28;20479;-69
2024/04/03 01:26:26;;;;;;;1.65;0.70;;;;;;;;;;5884498;28;20079;-68
2024/04/03 01:29:16;;;;;;;6.28;1.65;;;;;;;;;;5884929;28;20056;-68
2024/04/03 01:32:06;;;;;;;0.85;0.85;;;;;;;;;;5884883;28;20052;-68
2024/04/03 01:34:56;;;;;;;0.47;0.47;;;;;;;;;;5884951;28;20044;-68
2024/04/03 01:37:46;;;;;;;0.50;0.50;;;;;;;;;;5884696;28;20044;-68
2024/04/03 01:40:36;;;;;;;1.45;0.77;;;;;;;;;;5884368;28;20064;-67
2024/04/03 01:43:25;;;;;;;0.52;0.52;;;;;;;;;;5884557;28;20055;-68
2024/04/03 01:46:15;;;;;;;2.22;0.90;;;;;;;;;;5884487;28;20083;-68
2024/04/03 01:49:05;;;;;;;4.13;1.45;;;;;;;;;;5884490;28;20059;-68
2024/04/03 01:51:54;;;;;;;1.67;1.58;;;;;;;;;;5885023;28;20044;-67
2024/04/03 01:54:44;;;;;;;1.00;0.68;;;;;;;;;;5884310;28;20056;-68
2024/04/03 01:57:34;;;;;;;5.25;1.27;;;;;;;;;;5884446;28;20044;-68
2024/04/03 02:00:24;;;;;;;0.40;0.40;;;;;;;;;;5884479;28;20099;-68
2024/04/03 02:03:14;;;;;;;0.50;0.50;;;;;;;;;;5883784;28;20068;-68
2024/04/03 02:06:04;;;;;;;3.78;1.60;;;;;;;;;;5884435;28;20686;-68
2024/04/03 02:08:54;;;;;;;5.18;0.70;;;;;;;;;;5884487;28;20094;-68
2024/04/03 02:11:43;;;;;;;0.85;0.80;;;;;;;;;;5867727;28;20060;-67
2024/04/03 02:14:33;;;;;;;0.52;0.52;;;;;;;;;;5884258;28;20057;-67
2024/04/03 02:17:23;;;;;;;0.70;0.70;;;;;;;;;;5867871;28;20441;-68
2024/04/03 02:20:33;;;;;;;2.90;0.88;;;;;;;;;;5884081;28;20052;-67
2024/04/03 02:23:23;;;;;;;0.50;0.50;;;;;;;;;;5884164;28;20071;-68
2024/04/03 02:26:12;;;;;;;0.50;0.50;;;;;;;;;;5884020;28;20053;-68
2024/04/03 02:29:02;;;;;;;0.40;0.40;;;;;;;;;;5884222;28;20037;-67
2024/04/03 02:31:52;;;;;;;0.40;0.40;;;;;;;;;;5884251;28;20084;-67
2024/04/03 02:34:41;;;;;;;0.40;0.40;;;;;;;;;;5883697;28;20096;-68
2024/04/03 02:37:31;;;;;;;0.73;0.73;;;;;;;;;;5867394;28;20507;-68
2024/04/03 02:40:21;;;;;;;3.95;0.85;;;;;;;;;;5883847;28;20059;-68
2024/04/03 02:43:11;;;;;;;0.15;0.15;;;;;;;;;;5884093;28;20102;-68
2024/04/03 02:46:01;;;;;;;2.33;0.70;;;;;;;;;;5883949;28;20730;-67
2024/04/03 02:48:50;;;;;;;0.65;0.63;;;;;;;;;;5884410;28;20048;-67
2024/04/03 02:51:40;;;;;;;1.02;0.80;;;;;;;;;;5883754;28;20053;-67
2024/04/03 02:54:33;;;;;;;0.35;0.35;;;;;;;;;;5883938;28;20045;-67
2024/04/03 02:57:22;;;;;;;3.15;0.57;;;;;;;;;;5900501;28;20499;-67
2024/04/03 03:00:13;;;;;;;1.88;0.57;;;;;;;;;;5883535;28;20132;-67
2024/04/03 03:03:03;;;;;;;3.20;1.17;;;;;;;;;;5883804;28;20633;-68
2024/04/03 03:05:54;;;;;;;1.55;0.70;;;;;;;;;;5883848;28;20064;-68
2024/04/03 03:08:44;;;;;;;3.20;0.98;;;;;;;;;;5883625;28;20057;-68
2024/04/03 03:11:34;;;;;;;1.35;0.77;;;;;;;;;;5883616;28;20041;-67
2024/04/03 03:14:24;;;;;;;0.52;0.52;;;;;;;;;;5886347;28;20052;-68
2024/04/03 03:17:14;;;;;;;0.73;0.73;;;;;;;;;;5887766;28;20045;-68
2024/04/03 03:20:04;;;;;;;0.38;0.38;;;;;;;;;;5887771;28;20063;-68
2024/04/03 03:22:54;;;;;;;1.48;0.82;;;;;;;;;;5887225;28;20052;-68
2024/04/03 03:25:47;;;;;;;0.60;0.47;;;;;;;;;;5887446;28;20052;-68
2024/04/03 03:28:37;;;;;;;2.15;0.93;;;;;;;;;;5871354;28;20049;-67
2024/04/03 03:31:28;;;;;;;0.52;0.52;;;;;;;;;;5887555;28;20398;-67
2024/04/03 03:34:18;;;;;;;1.85;1.23;;;;;;;;;;5887460;28;20068;-68
2024/04/03 03:37:08;;;;;;;1.05;0.95;;;;;;;;;;5887424;28;20049;-68
2024/04/03 03:40:00;;;;;;;4.85;0.75;;;;;;;;;;5887827;28;20075;-67
2024/04/03 03:42:50;;;;;;;0.60;0.55;;;;;;;;;;5904237;28;20068;-67
2024/04/03 03:45:49;;;;;;;0.98;0.73;;;;;;;;;;5887294;28;20462;-67
2024/04/03 03:55:00;;;;;;;1.20;1.05;;;;;;;;;;5903661;28;20067;-67
2024/04/03 03:57:50;;;;;;;0.70;0.50;;;;;;;;;;5887216;28;20067;-68
2024/04/03 04:00:39;;;;;;;5.20;0.73;;;;;;;;;;5886742;28;20425;-68
2024/04/03 04:03:29;;;;;;;4.57;1.80;;;;;;;;;;5887014;28;20056;-67
2024/04/03 04:06:19;;;;;;;3.17;0.57;;;;;;;;;;5886789;28;20070;-67
2024/04/03 04:09:09;;;;;;;0.50;0.50;;;;;;;;;;5886504;28;20414;-67
2024/04/03 04:11:58;;;;;;;0.40;0.40;;;;;;;;;;5887011;28;20057;-67
2024/04/03 04:14:50;;;;;;;1.45;0.82;;;;;;;;;;5886583;28;20057;-67
2024/04/03 04:17:40;;;;;;;9.18;1.05;;;;;;;;;;5903312;28;20057;-67
2024/04/03 04:20:30;;;;;;;0.65;0.65;;;;;;;;;;5886489;28;20402;-68
2024/04/03 04:23:20;;;;;;;1.58;0.77;;;;;;;;;;5886635;28;20049;-67
2024/04/03 04:26:09;;;;;;;1.00;0.60;;;;;;;;;;5885545;28;20049;-68
2024/04/03 04:28:59;;;;;;;4.18;1.55;;;;;;;;;;5886690;28;20084;-68
2024/04/03 04:31:49;;;;;;;0.30;0.30;;;;;;;;;;5886358;28;20099;-67
2024/04/03 04:34:40;;;;;;;1.67;0.98;;;;;;;;;;5886195;28;20119;-67
2024/04/03 04:37:29;;;;;;;0.85;0.82;;;;;;;;;;5902834;28;20487;-67
2024/04/03 04:40:19;;;;;;;0.75;0.75;;;;;;;;;;5885920;28;20110;-68
2024/04/03 04:43:09;;;;;;;1.10;1.00;;;;;;;;;;5886075;28;20053;-68
2024/04/03 04:46:04;;;;;;;2.35;0.98;;;;;;;;;;5886213;28;20052;-67
2024/04/03 04:48:53;;;;;;;1.10;0.50;;;;;;;;;;5885725;28;20102;-68
2024/04/03 04:51:43;;;;;;;2.72;1.30;;;;;;;;;;5869084;28;20510;-67
2024/04/03 04:54:34;;;;;;;0.50;0.50;;;;;;;;;;5885849;28;20048;-68
2024/04/03 04:57:24;;;;;;;1.10;0.60;;;;;;;;;;5902253;28;20502;-68
2024/04/03 05:00:15;;;;;;;1.17;0.68;;;;;;;;;;5885411;28;20057;-67
2024/04/03 05:03:04;;;;;;;2.08;1.08;;;;;;;;;;5885569;28;20049;-68
2024/04/03 05:05:55;;;;;;;3.35;0.75;;;;;;;;;;5885861;28;20049;-67
2024/04/03 05:08:45;;;;;;;0.43;0.43;;;;;;;;;;5885206;28;20066;-67
2024/04/03 05:11:35;;;;;;;5.70;1.25;;;;;;;;;;5885409;28;20040;-67
2024/04/03 05:14:25;;;;;;;2.60;1.38;;;;;;;;;;5885278;28;20041;-67
2024/04/03 05:17:16;;;;;;;6.63;1.33;;;;;;;;;;5885415;28;20041;-67
2024/04/03 05:20:06;;;;;;;4.75;2.00;;;;;;;;;;5885083;28;20041;-67
2024/04/03 05:22:56;;;;;;;5.15;2.45;;;;;;;;;;5885815;28;20122;-68
2024/04/03 05:25:54;;;;;;;2.70;1.90;;;;;;;;;;5868783;28;20048;-68
2024/04/03 05:28:44;;;;;;;2.25;1.88;;;;;;;;;;5884814;28;20049;-68
2024/04/03 05:31:36;;;;;;;2.47;2.08;;;;;;;;;;5885133;28;20094;-67
2024/04/03 05:34:25;;;;;;;16.55;1.30;;;;;;;;;;5884925;28;20071;-67
2024/04/03 05:37:15;;;;;;;1.25;1.05;;;;;;;;;;5884807;28;20049;-67
2024/04/03 05:40:06;;;;;;;7.93;2.40;;;;;;;;;;5884864;28;20114;-68
2024/04/03 05:42:56;;;;;;;3.40;1.55;;;;;;;;;;5885376;28;20494;-68
2024/04/03 05:45:47;;;;;;;3.30;1.98;;;;;;;;;;5884686;28;20053;-67
2024/04/03 05:48:37;;;;;;;5.55;1.63;;;;;;;;;;5884866;28;20044;-68
2024/04/03 05:51:27;;;;;;;8.63;2.35;;;;;;;;;;5884549;28;20048;-68
2024/04/03 05:54:17;;;;;;;1.38;1.08;;;;;;;;;;5884731;28;20453;-67
2024/04/03 05:57:06;;;;;;;1.98;1.50;;;;;;;;;;5884500;28;20064;-67
2024/04/03 05:59:56;;;;;;;0.47;0.47;;;;;;;;;;5884854;28;20056;-68
2024/04/03 06:02:46;;;;;;;0.82;0.55;;;;;;;;;;5867849;28;20118;-68
2024/04/03 06:05:36;;;;;;;0.63;0.50;;;;;;;;;;5884203;28;20044;-67
2024/04/03 06:08:26;;;;;;;1.65;1.13;;;;;;;;;;5867993;28;20060;-68
2024/04/03 06:11:16;;;;;;;0.45;0.45;;;;;;;;;;5867749;28;20095;-68
2024/04/03 06:14:06;;;;;;;1.33;0.90;;;;;;;;;;5884457;28;20041;-67
2024/04/03 06:16:55;;;;;;;0.73;0.63;;;;;;;;;;5884662;28;20467;-68
2024/04/03 06:19:45;;;;;;;3.13;0.93;;;;;;;;;;5884647;28;20045;-68
2024/04/03 06:22:35;;;;;;;1.48;0.80;;;;;;;;;;5884138;28;20045;-68
2024/04/03 06:25:25;;;;;;;1.33;0.73;;;;;;;;;;5884195;28;20052;-67
2024/04/03 06:28:15;;;;;;;1.17;0.63;;;;;;;;;;5883961;28;20410;-68
2024/04/03 06:31:05;;;;;;;2.78;0.93;;;;;;;;;;5884237;28;20044;-68
2024/04/03 06:33:56;;;;;;;1.30;0.73;;;;;;;;;;5884376;28;20493;-68
2024/04/03 06:36:47;;;;;;;0.68;0.57;;;;;;;;;;5884153;28;20049;-68
2024/04/03 06:39:37;;;;;;;1.05;0.70;;;;;;;;;;5900694;28;20491;-67
2024/04/03 06:42:27;;;;;;;5.65;1.50;;;;;;;;;;5883892;28;20053;-67
2024/04/03 06:45:17;;;;;;;1.08;0.60;;;;;;;;;;5884180;28;20072;-67
2024/04/03 06:48:06;;;;;;;7.70;0.98;;;;;;;;;;5885336;28;20045;-67
2024/04/03 06:50:56;;;;;;;1.98;0.88;;;;;;;;;;5889112;28;20053;-68
2024/04/03 06:53:48;;;;;;;1.92;0.73;;;;;;;;;;5888694;28;20119;-67
2024/04/03 06:56:38;;;;;;;1.35;0.82;;;;;;;;;;5888315;28;20367;-67
2024/04/03 06:59:28;;;;;;;1.73;0.75;;;;;;;;;;5888339;28;20045;-67
2024/04/03 07:02:17;;;;;;;2.90;1.05;;;;;;;;;;5904802;28;20414;-67
2024/04/03 07:05:08;;;;;;;0.50;0.50;;;;;;;;;;5888203;28;20053;-68
2024/04/03 07:07:58;;;;;;;2.10;1.05;;;;;;;;;;5888535;28;20045;-67
2024/04/03 07:10:48;;;;;;;6.35;1.83;;;;;;;;;;5887946;28;20049;-67
2024/04/03 07:13:37;;;;;;;1.23;0.80;;;;;;;;;;5871604;28;20101;-68
2024/04/03 07:16:27;;;;;;;2.17;0.80;;;;;;;;;;5887912;28;20564;-67
2024/04/03 07:19:18;;;;;;;0.50;0.50;;;;;;;;;;5887959;28;20052;-67
2024/04/03 07:22:09;;;;;;;0.47;0.47;;;;;;;;;;5888108;28;20044;-69
2024/04/03 07:24:58;;;;;;;0.82;0.73;;;;;;;;;;5871775;28;20072;-67
2024/04/03 07:27:50;;;;;;;0.50;0.50;;;;;;;;;;5887750;28;20077;-67
2024/04/03 07:30:42;;;;;;;4.38;1.23;;;;;;;;;;5904472;28;20513;-67
2024/04/03 07:33:32;;;;;;;0.80;0.55;;;;;;;;;;5887760;28;20704;-67
2024/04/03 07:36:23;;;;;;;1.45;0.77;;;;;;;;;;5887722;28;20152;-68
2024/04/03 07:39:12;;;;;;;0.85;0.68;;;;;;;;;;5887746;28;20048;-68
2024/04/03 07:42:02;;;;;;;2.45;0.50;;;;;;;;;;5887680;28;20068;-69
2024/04/03 07:44:52;;;;;;;2.40;1.23;;;;;;;;;;5887878;28;20055;-67
2024/04/03 07:47:42;;;;;;;4.20;1.55;;;;;;;;;;5887255;28;20045;-68
2024/04/03 07:50:32;;;;;;;1.35;0.50;;;;;;;;;;5886931;28;20056;-68
2024/04/03 07:53:22;;;;;;;4.03;3.10;;;;;;;;;;5867470;28;20761;-68
2024/04/03 07:56:13;;;;;;;1.27;0.75;;;;;;;;;;5881774;28;20095;-68
2024/04/03 07:59:04;;;;;;;3.97;1.38;;;;;;;;;;5902970;28;20517;-68
2024/04/03 08:01:54;;;;;;;1.67;0.82;;;;;;;;;;5887105;28;20065;-68
2024/04/03 08:04:43;;;;;;;1.42;0.98;;;;;;;;;;5886713;28;20051;-67
2024/04/03 08:07:33;;;;;;;1.15;0.82;;;;;;;;;;5887054;28;20063;-67
2024/04/03 08:10:23;;;;;;;1.58;1.05;;;;;;;;;;5886631;28;20061;-67
2024/04/03 08:13:13;;;;;;;1.33;0.40;;;;;;;;;;5886836;28;20128;-68
2024/04/03 08:16:06;;;;;;;3.20;1.08;;;;;;;;;;5886794;28;20152;-68
2024/04/03 08:18:56;;;;;;;2.13;0.68;;;;;;;;;;5887008;28;20076;-68
2024/04/03 08:21:49;;;;;;;2.70;0.82;;;;;;;;;;5886528;28;20048;-68
2024/04/03 08:24:38;;;;;;;0.63;0.47;;;;;;;;;;5886355;28;20059;-68
2024/04/03 08:27:32;;;;;;;2.17;0.98;;;;;;;;;;5886395;28;20084;-67
2024/04/03 08:30:22;;;;;;;0.43;0.43;;;;;;;;;;5903205;28;20102;-69
2024/04/03 08:33:12;;;;;;;2.38;0.60;;;;;;;;;;5886513;28;20547;-68
2024/04/03 08:36:02;;;;;;;1.48;0.75;;;;;;;;;;5886256;28;20049;-68
2024/04/03 08:38:53;;;;;;;1.25;0.70;;;;;;;;;;5886819;28;20494;-68
2024/04/03 08:41:43;;;;;;;1.23;0.40;;;;;;;;;;5902803;28;20118;-67
2024/04/03 08:44:33;;;;;;;12.25;1.08;;;;;;;;;;5853043;28;20045;-69
2024/04/03 08:47:25;;;;;;;3.00;1.10;;;;;;;;;;5869671;28;20045;-68
2024/04/03 08:50:15;;;;;;;6.45;0.80;;;;;;;;;;5902708;28;20048;-68
2024/04/03 08:53:05;;;;;;;0.20;0.20;;;;;;;;;;5886116;28;20094;-69
2024/04/03 08:55:59;;;;;;;0.82;0.55;;;;;;;;;;5886235;28;20451;-68
2024/04/03 08:58:50;;;;;;;1.45;0.60;;;;;;;;;;5885752;28;20041;-69
2024/04/03 09:01:43;;;;;;;1.55;0.50;;;;;;;;;;5885823;28;20568;-68
2024/04/03 09:04:34;;;;;;;0.47;0.40;;;;;;;;;;5902453;28;20420;-68
2024/04/03 09:07:23;;;;;;;4.88;1.10;;;;;;;;;;5902108;28;20154;-71
2024/04/03 09:10:13;;;;;;;0.75;0.50;;;;;;;;;;5868799;28;20132;-68
2024/04/03 09:13:06;;;;;;;0.95;0.82;;;;;;;;;;5885334;28;20052;-68
2024/04/03 09:15:56;;;;;;;2.67;0.50;;;;;;;;;;5902148;28;20041;-68
2024/04/03 09:18:46;;;;;;;0.28;0.28;;;;;;;;;;5885354;28;20056;-69
2024/04/03 09:21:36;;;;;;;0.75;0.43;;;;;;;;;;5885431;28;20052;-68
2024/04/03 09:24:26;;;;;;;2.97;0.70;;;;;;;;;;5885236;28;20780;-67
2024/04/03 09:27:17;;;;;;;0.35;0.35;;;;;;;;;;5885077;28;20051;-68
2024/04/03 09:30:13;;;;;;;5.15;0.63;;;;;;;;;;5885258;28;20119;-68
2024/04/03 09:33:05;;;;;;;1.20;0.43;;;;;;;;;;5885067;28;20052;-68
2024/04/03 09:35:55;;;;;;;0.30;0.30;;;;;;;;;;5885360;28;20106;-68
2024/04/03 09:38:44;;;;;;;2.15;0.50;;;;;;;;;;5884974;28;20057;-68
2024/04/03 09:41:38;;;;;;;5.65;0.88;;;;;;;;;;5884651;28;20049;-68
2024/04/03 09:44:31;;;;;;;0.20;0.17;;;;;;;;;;5884790;28;20499;-67
2024/04/03 09:47:22;;;;;;;22.88;0.73;;;;;;;;;;5884684;28;20060;-68
2024/04/03 09:50:13;;;;;;;1.17;0.65;;;;;;;;;;5884704;28;20053;-68
2024/04/03 09:53:11;;;;;;;2.50;0.32;;;;;;;;;;5884798;28;20052;-68
2024/04/03 09:56:01;;;;;;;0.95;0.35;;;;;;;;;;5901527;28;20409;-69
2024/04/03 09:58:51;;;;;;;0.52;0.38;;;;;;;;;;5868641;28;20067;-68
2024/04/03 10:01:41;;;;;;;1.00;0.50;;;;;;;;;;5868031;28;20427;-69
2024/04/03 10:04:36;;;;;;;0.30;0.30;;;;;;;;;;5884293;28;20052;-69
2024/04/03 10:07:29;;;;;;;2.17;0.57;;;;;;;;;;5901164;28;20502;-68
2024/04/03 10:10:26;;;;;;;2.05;0.90;;;;;;;;;;5884303;28;20057;-68
2024/04/03 10:13:25;;;;;;;1.60;0.32;;;;;;;;;;5884530;28;20063;-68
2024/04/03 10:16:15;;;;;;;0.47;0.38;;;;;;;;;;5900917;28;20045;-70
2024/04/03 10:19:05;;;;;;;0.98;0.20;;;;;;;;;;5884511;28;20044;-68
2024/04/03 10:21:56;;;;;;;1.88;0.82;;;;;;;;;;5884435;28;20506;-67
2024/04/03 10:24:45;;;;;;;0.25;0.25;;;;;;;;;;5888154;28;20059;-68
2024/04/03 10:27:35;;;;;;;0.70;0.47;;;;;;;;;;5889055;28;20049;-68
2024/04/03 10:30:25;;;;;;;0.28;0.28;;;;;;;;;;5872436;28;20048;-70
2024/04/03 10:33:15;;;;;;;7.32;1.25;;;;;;;;;;5888820;28;20044;-68
2024/04/03 10:36:05;;;;;;;2.00;0.45;;;;;;;;;;5888880;28;20080;-68
2024/04/03 10:38:55;;;;;;;0.30;0.15;;;;;;;;;;5889101;28;20045;-68
2024/04/03 10:41:55;;;;;;;0.65;0.30;;;;;;;;;;5888653;28;20044;-67
2024/04/03 10:44:45;;;;;;;1.27;0.68;;;;;;;;;;5888589;28;20048;-69
2024/04/03 10:47:35;;;;;;;0.88;0.40;;;;;;;;;;5872095;28;20049;-68
2024/04/03 10:50:25;;;;;;;0.75;0.45;;;;;;;;;;5905418;28;20045;-69
2024/04/03 10:53:17;;;;;;;6.03;0.98;;;;;;;;;;5872012;28;20055;-68
2024/04/03 10:56:07;;;;;;;0.52;0.45;;;;;;;;;;5871929;28;20045;-69
2024/04/03 10:58:57;;;;;;;1.75;0.80;;;;;;;;;;5889071;28;20414;-68
2024/04/03 11:01:47;;;;;;;0.40;0.28;;;;;;;;;;5888152;28;20098;-67
2024/04/03 11:04:37;;;;;;;0.50;0.50;;;;;;;;;;5888410;28;20119;-67
2024/04/03 11:07:28;;;;;;;1.30;1.08;;;;;;;;;;5887960;28;20151;-68
2024/04/03 11:10:20;;;;;;;0.45;0.35;;;;;;;;;;5887925;28;20075;-67
2024/04/03 11:13:15;;;;;;;1.33;0.65;;;;;;;;;;5888053;28;20471;-70
2024/04/03 11:16:08;;;;;;;2.05;1.00;;;;;;;;;;5888129;28;20505;-70
2024/04/03 11:18:58;;;;;;;0.50;0.40;;;;;;;;;;5888705;28;20452;-67
2024/04/03 11:21:47;;;;;;;12.18;2.55;;;;;;;;;;5887760;28;20056;-68
2024/04/03 11:24:37;;;;;;;8.82;1.90;;;;;;;;;;5887635;28;20053;-69
2024/04/03 11:27:27;;;;;;;0.55;0.55;;;;;;;;;;5887743;28;20049;-69
2024/04/03 11:30:17;;;;;;;2.35;1.05;;;;;;;;;;5887408;28;20051;-68
2024/04/03 11:33:07;;;;;;;0.47;0.30;;;;;;;;;;5887705;28;20053;-68
2024/04/03 11:35:57;;;;;;;2.30;0.40;;;;;;;;;;5887841;28;20075;-68
2024/04/03 11:38:46;;;;;;;4.95;0.47;;;;;;;;;;5871435;28;20406;-67
2024/04/03 11:41:36;;;;;;;1.35;0.32;;;;;;;;;;5887429;28;20186;-68
2024/04/03 11:44:26;;;;;;;4.63;0.68;;;;;;;;;;5887349;28;20049;-68
2024/04/03 11:47:16;;;;;;;1.40;0.50;;;;;;;;;;5887411;28;20049;-67
2024/04/03 11:50:06;;;;;;;0.40;0.20;;;;;;;;;;5887270;28;20128;-68
2024/04/03 11:52:56;;;;;;;0.88;0.45;;;;;;;;;;5887918;28;20059;-67
2024/04/03 11:55:46;;;;;;;0.38;0.38;;;;;;;;;;5887120;28;20081;-67
2024/04/03 11:58:35;;;;;;;0.85;0.80;;;;;;;;;;5886857;28;20056;-67
2024/04/03 12:01:26;;;;;;;4.13;1.60;;;;;;;;;;5886723;28;20051;-67
2024/04/03 12:04:16;;;;;;;4.20;1.13;;;;;;;;;;5903547;28;20059;-67
2024/04/03 12:07:06;;;;;;;9.93;2.55;;;;;;;;;;5886528;28;20045;-67
2024/04/03 12:09:56;;;;;;;1.75;1.13;;;;;;;;;;5870719;28;20053;-67
2024/04/03 12:12:46;;;;;;;2.08;1.27;;;;;;;;;;5886809;28;20488;-68
2024/04/03 12:15:36;;;;;;;0.40;0.30;;;;;;;;;;5886334;28;20053;-68
2024/04/03 12:18:37;;;;;;;1.75;1.00;;;;;;;;;;5886504;28;20053;-68
2024/04/03 12:21:27;;;;;;;0.30;0.30;;;;;;;;;;5886740;28;20095;-67
2024/04/03 12:24:16;;;;;;;1.02;0.57;;;;;;;;;;5886592;28;20072;-67
2024/04/03 12:27:06;;;;;;;3.40;0.65;;;;;;;;;;5886555;28;20127;-68
2024/04/03 12:29:57;;;;;;;13.48;1.33;;;;;;;;;;5886931;28;20589;-67
2024/04/03 12:32:47;;;;;;;1.73;1.05;;;;;;;;;;5886248;28;20064;-68
2024/04/03 12:35:36;;;;;;;3.45;0.93;;;;;;;;;;5886520;28;20053;-67
2024/04/03 12:38:26;;;;;;;1.00;0.65;;;;;;;;;;5886400;28;20162;-67
2024/04/03 12:41:16;;;;;;;1.58;1.02;;;;;;;;;;5886226;28;20194;-67
2024/04/03 12:44:06;;;;;;;2.63;0.50;;;;;;;;;;5885933;28;20049;-67
2024/04/03 12:46:56;;;;;;;3.03;2.13;;;;;;;;;;5885717;28;20053;-67
2024/04/03 12:49:45;;;;;;;7.93;1.40;;;;;;;;;;5885910;28;20551;-67
2024/04/03 12:52:36;;;;;;;0.30;0.30;;;;;;;;;;5885901;28;20461;-68
2024/04/03 12:55:26;;;;;;;1.02;0.88;;;;;;;;;;5885811;28;20049;-68
2024/04/03 12:58:16;;;;;;;3.88;1.25;;;;;;;;;;5885624;28;20041;-68
2024/04/03 13:01:07;;;;;;;2.13;1.42;;;;;;;;;;5868859;28;20049;-68
2024/04/03 13:03:59;;;;;;;0.17;0.17;;;;;;;;;;5902731;28;20525;-67
2024/04/03 13:06:49;;;;;;;0.38;0.38;;;;;;;;;;5868727;28;20052;-67
2024/04/03 13:09:39;;;;;;;3.10;0.75;;;;;;;;;;5885412;28;20076;-67
2024/04/03 13:12:29;;;;;;;0.68;0.50;;;;;;;;;;5885345;28;20049;-68
2024/04/03 13:15:18;;;;;;;0.88;0.45;;;;;;;;;;5885460;28;20098;-68
2024/04/03 13:18:09;;;;;;;1.30;0.55;;;;;;;;;;5885253;28;20418;-68
2024/04/03 13:20:58;;;;;;;1.60;0.75;;;;;;;;;;5885655;28;20386;-67
2024/04/03 13:23:48;;;;;;;2.92;0.73;;;;;;;;;;5885414;28;20056;-67
2024/04/03 13:26:38;;;;;;;4.95;0.77;;;;;;;;;;5885057;28;20124;-67
2024/04/03 13:29:28;;;;;;;0.70;0.40;;;;;;;;;;5884968;28;20049;-67
2024/04/03 13:32:18;;;;;;;0.55;0.38;;;;;;;;;;5868355;28;20053;-68
2024/04/03 13:35:07;;;;;;;2.15;1.08;;;;;;;;;;5884988;28;20056;-67
2024/04/03 13:37:57;;;;;;;0.57;0.38;;;;;;;;;;5885342;28;20037;-67
2024/04/03 13:40:48;;;;;;;0.28;0.20;;;;;;;;;;5884930;28;20057;-67
2024/04/03 13:43:37;;;;;;;0.63;0.63;;;;;;;;;;5884930;28;20059;-67
2024/04/03 13:46:27;;;;;;;2.13;0.60;;;;;;;;;;5884666;28;20068;-68
2024/04/03 13:49:17;;;;;;;0.80;0.20;;;;;;;;;;5884790;28;20048;-67
2024/04/03 13:52:08;;;;;;;1.20;0.25;;;;;;;;;;5884917;28;20049;-67
2024/04/03 13:54:58;;;;;;;1.17;0.38;;;;;;;;;;5884867;28;20053;-67
2024/04/03 13:57:48;;;;;;;0.10;0.10;;;;;;;;;;5867894;28;20045;-67
2024/04/03 14:00:39;;;;;;;1.45;0.52;;;;;;;;;;5867818;28;20582;-67
2024/04/03 14:03:33;;;;;;;0.98;0.55;;;;;;;;;;5868209;28;20045;-67
2024/04/03 14:06:23;;;;;;;0.40;0.30;;;;;;;;;;5884483;28;20556;-68
2024/04/03 14:09:13;;;;;;;0.70;0.57;;;;;;;;;;5868222;28;20111;-68
2024/04/03 14:12:03;;;;;;;4.63;1.52;;;;;;;;;;5884529;28;20073;-67
2024/04/03 14:14:53;;;;;;;0.28;0.15;;;;;;;;;;5884658;28;20053;-67
2024/04/03 14:17:43;;;;;;;0.75;0.47;;;;;;;;;;5884436;28;20067;-67
2024/04/03 14:20:32;;;;;;;0.65;0.40;;;;;;;;;;5867869;28;20458;-68
2024/04/03 14:23:22;;;;;;;0.93;0.45;;;;;;;;;;5884332;28;20055;-67
2024/04/03 14:26:12;;;;;;;0.73;0.47;;;;;;;;;;5867484;28;20549;-67
2024/04/03 14:29:02;;;;;;;0.22;0.22;;;;;;;;;;5884242;28;20049;-67
2024/04/03 14:31:52;;;;;;;0.73;0.50;;;;;;;;;;5884456;28;20615;-68
2024/04/03 14:34:42;;;;;;;6.30;0.60;;;;;;;;;;5884101;28;20208;-67
2024/04/03 14:37:32;;;;;;;6.20;0.88;;;;;;;;;;5883974;28;20048;-67
2024/04/03 14:40:22;;;;;;;3.45;1.30;;;;;;;;;;5884210;28;20049;-67
2024/04/03 14:43:11;;;;;;;2.85;1.15;;;;;;;;;;5884117;28;20056;-67
2024/04/03 14:46:01;;;;;;;0.88;0.28;;;;;;;;;;5883734;28;20410;-67
2024/04/03 14:48:51;;;;;;;1.55;0.95;;;;;;;;;;5884199;28;20530;-67
2024/04/03 14:51:41;;;;;;;1.13;1.02;;;;;;;;;;5884080;28;20053;-67
2024/04/03 14:54:31;;;;;;;6.13;1.30;;;;;;;;;;5883856;28;20037;-67
2024/04/03 14:57:21;;;;;;;1.40;0.50;;;;;;;;;;5884076;28;20080;-67
2024/04/03 15:00:11;;;;;;;3.22;0.73;;;;;;;;;;5867225;28;20453;-67
2024/04/03 15:03:01;;;;;;;0.80;0.52;;;;;;;;;;5883840;28;20060;-67
2024/04/03 15:05:52;;;;;;;1.80;1.15;;;;;;;;;;5884105;28;20052;-67
2024/04/03 15:08:42;;;;;;;0.90;0.50;;;;;;;;;;5867563;28;20052;-67
2024/04/03 15:11:32;;;;;;;0.88;0.75;;;;;;;;;;5888181;28;20052;-67
2024/04/03 15:14:23;;;;;;;19.45;1.20;;;;;;;;;;5887897;28;20055;-67
2024/04/03 15:17:31;;;;;;;2.10;1.45;;;;;;;;;;5887910;28;20049;-67
2024/04/03 15:20:20;;;;;;;4.03;2.63;;;;;;;;;;5887658;28;20060;-67
2024/04/03 15:23:10;;;;;;;11.95;7.95;;;;;;;;;;5887590;28;20099;-67
2024/04/03 15:26:04;;;;;;;2.42;2.13;;;;;;;;;;5888027;28;20048;-67
2024/04/03 15:28:53;;;;;;;7.78;3.35;;;;;;;;;;5904542;28;20052;-67
2024/04/03 15:31:43;;;;;;;4.13;1.73;;;;;;;;;;5887496;28;20460;-67
2024/04/03 15:34:34;;;;;;;2.35;0.98;;;;;;;;;;5887334;28;20045;-67
2024/04/03 15:37:24;;;;;;;3.22;1.15;;;;;;;;;;5887471;28;20063;-67
2024/04/03 15:40:16;;;;;;;2.53;1.25;;;;;;;;;;5887380;28;20415;-67
2024/04/03 15:43:06;;;;;;;3.88;2.28;;;;;;;;;;5871152;28;20068;-67
2024/04/03 15:45:56;;;;;;;5.60;2.13;;;;;;;;;;5887746;28;20081;-67
2024/04/03 15:48:46;;;;;;;6.72;2.25;;;;;;;;;;5887350;28;20044;-67
2024/04/03 15:51:36;;;;;;;2.50;1.50;;;;;;;;;;5887158;28;20057;-67
2024/04/03 15:54:26;;;;;;;3.83;1.20;;;;;;;;;;5887161;28;20067;-67
2024/04/03 15:57:16;;;;;;;2.67;1.17;;;;;;;;;;5854334;28;20045;-67
2024/04/03 16:00:10;;;;;;;3.70;1.15;;;;;;;;;;5886882;28;20056;-67
2024/04/03 16:03:00;;;;;;;3.60;2.00;;;;;;;;;;5887395;28;20056;-67
2024/04/03 16:05:49;;;;;;;1.98;1.48;;;;;;;;;;5886647;28;20170;-67
2024/04/03 16:08:39;;;;;;;2.75;1.48;;;;;;;;;;5886760;28;20045;-67
2024/04/03 16:11:29;;;;;;;5.05;1.55;;;;;;;;;;5886766;28;20045;-67
2024/04/03 16:14:19;;;;;;;1.65;0.98;;;;;;;;;;5886584;28;20473;-67
2024/04/03 16:17:09;;;;;;;2.13;0.98;;;;;;;;;;5903265;28;20478;-67
2024/04/03 16:19:59;;;;;;;1.58;1.20;;;;;;;;;;5886449;28;20091;-67
2024/04/03 16:22:48;;;;;;;2.72;0.93;;;;;;;;;;5886152;28;20129;-67
2024/04/03 16:25:38;;;;;;;4.00;1.42;;;;;;;;;;5886435;28;20049;-67
2024/04/03 16:28:28;;;;;;;2.78;1.42;;;;;;;;;;5886407;28;20064;-67
2024/04/03 16:31:18;;;;;;;1.20;0.88;;;;;;;;;;5886268;28;20048;-67
2024/04/03 16:34:09;;;;;;;4.07;1.55;;;;;;;;;;5886124;28;20053;-67
2024/04/03 16:36:59;;;;;;;1.92;1.05;;;;;;;;;;5886787;28;20048;-67
2024/04/03 16:39:48;;;;;;;10.73;1.45;;;;;;;;;;5886044;28;20049;-67
2024/04/03 16:42:40;;;;;;;2.65;1.58;;;;;;;;;;5886333;28;20069;-67
2024/04/03 16:45:30;;;;;;;3.25;1.30;;;;;;;;;;5885924;28;20045;-67
2024/04/03 16:48:20;;;;;;;4.82;1.27;;;;;;;;;;5885849;28;20047;-67
2024/04/03 16:51:11;;;;;;;8.65;3.03;;;;;;;;;;5886102;28;20053;-67
2024/04/03 16:54:00;;;;;;;5.38;2.47;;;;;;;;;;5886387;28;20052;-67
2024/04/03 16:56:50;;;;;;;5.25;3.63;;;;;;;;;;5886071;28;20072;-67
2024/04/03 16:59:40;;;;;;;10.80;5.47;;;;;;;;;;5885601;28;20049;-67
2024/04/03 17:02:30;;;;;;;14.60;8.20;;;;;;;;;;5885653;28;20044;-67
2024/04/03 17:05:19;;;;;;;20.15;12.55;;;;;;;;;;5885493;28;20410;-67
2024/04/03 17:08:09;;;;;;;33.63;14.30;;;;;;;;;;5885467;28;20041;-67